sensor_id;sensor_type;location;lat;lon;timestamp;temperature;humidity
65568;DHT22;52211;50.154;8.682;2023-05-07T00:02:03;19.50;51.00
65568;DHT22;52211;50.154;8.682;2023-05-07T00:04:30;19.50;50.80
65568;DHT22;52211;50.154;8.682;2023-05-07T00:07:03;19.50;51.60
65568;DHT22;52211;50.154;8.682;2023-05-07T00:09:33;19.50;50.90
65568;DHT22;52211;50.154;8.682;2023-05-07T00:12:00;19.50;51.00
65568;DHT22;52211;50.154;8.682;2023-05-07T00:14:30;19.40;51.00
65568;DHT22;52211;50.154;8.682;2023-05-07T00:16:57;19.40;51.10
65568;DHT22;52211;50.154;8.682;2023-05-07T00:19:26;19.40;51.10
65568;DHT22;52211;50.154;8.682;2023-05-07T00:21:53;19.40;51.20
65568;DHT22;52211;50.154;8.682;2023-05-07T00:24:23;19.40;51.30
65568;DHT22;52211;50.154;8.682;2023-05-07T00:26:52;19.40;51.50
65568;DHT22;52211;50.154;8.682;2023-05-07T00:29:22;19.40;51.30
65568;DHT22;52211;50.154;8.682;2023-05-07T00:31:51;19.40;51.40
65568;DHT22;52211;50.154;8.682;2023-05-07T00:34:22;19.30;51.40
65568;DHT22;52211;50.154;8.682;2023-05-07T00:36:49;19.40;51.50
65568;DHT22;52211;50.154;8.682;2023-05-07T00:39:18;19.30;51.50
65568;DHT22;52211;50.154;8.682;2023-05-07T00:41:49;19.40;51.60
65568;DHT22;52211;50.154;8.682;2023-05-07T00:44:18;19.40;51.60
65568;DHT22;52211;50.154;8.682;2023-05-07T00:46:46;19.40;51.70
65568;DHT22;52211;50.154;8.682;2023-05-07T00:49:16;19.40;51.80
65568;DHT22;52211;50.154;8.682;2023-05-07T00:51:47;19.40;51.80
65568;DHT22;52211;50.154;8.682;2023-05-07T00:54:19;19.40;51.80
65568;DHT22;52211;50.154;8.682;2023-05-07T00:56:48;19.40;51.90
65568;DHT22;52211;50.154;8.682;2023-05-07T00:59:18;19.40;52.00
65568;DHT22;52211;50.154;8.682;2023-05-07T01:01:50;19.30;51.90
65568;DHT22;52211;50.154;8.682;2023-05-07T01:04:21;19.30;52.00
65568;DHT22;52211;50.154;8.682;2023-05-07T01:06:49;19.30;52.00
65568;DHT22;52211;50.154;8.682;2023-05-07T01:09:23;19.30;52.10
65568;DHT22;52211;50.154;8.682;2023-05-07T01:11:58;19.30;52.30
65568;DHT22;52211;50.154;8.682;2023-05-07T01:14:28;19.20;52.20
65568;DHT22;52211;50.154;8.682;2023-05-07T01:16:58;19.30;52.20
65568;DHT22;52211;50.154;8.682;2023-05-07T01:19:28;19.30;52.50
65568;DHT22;52211;50.154;8.682;2023-05-07T01:22:04;19.30;52.40
65568;DHT22;52211;50.154;8.682;2023-05-07T01:24:46;19.20;52.60
65568;DHT22;52211;50.154;8.682;2023-05-07T01:27:16;19.20;52.40
65568;DHT22;52211;50.154;8.682;2023-05-07T01:29:46;19.20;52.40
65568;DHT22;52211;50.154;8.682;2023-05-07T01:32:15;19.20;52.60
65568;DHT22;52211;50.154;8.682;2023-05-07T01:34:48;19.20;52.60
65568;DHT22;52211;50.154;8.682;2023-05-07T01:37:24;19.20;52.60
65568;DHT22;52211;50.154;8.682;2023-05-07T01:39:57;19.20;52.90
65568;DHT22;52211;50.154;8.682;2023-05-07T01:42:29;19.20;52.80
65568;DHT22;52211;50.154;8.682;2023-05-07T01:45:02;19.10;52.80
65568;DHT22;52211;50.154;8.682;2023-05-07T01:47:29;19.10;53.10
65568;DHT22;52211;50.154;8.682;2023-05-07T01:49:58;19.10;52.90
65568;DHT22;52211;50.154;8.682;2023-05-07T01:52:31;19.10;53.00
65568;DHT22;52211;50.154;8.682;2023-05-07T01:54:58;19.10;53.20
65568;DHT22;52211;50.154;8.682;2023-05-07T01:57:28;19.10;53.00
65568;DHT22;52211;50.154;8.682;2023-05-07T01:59:55;19.10;53.10
65568;DHT22;52211;50.154;8.682;2023-05-07T02:02:22;19.00;53.10
65568;DHT22;52211;50.154;8.682;2023-05-07T02:04:54;19.00;53.20
65568;DHT22;52211;50.154;8.682;2023-05-07T02:07:21;19.10;53.30
65568;DHT22;52211;50.154;8.682;2023-05-07T02:09:48;19.00;53.30
65568;DHT22;52211;50.154;8.682;2023-05-07T02:12:18;19.10;53.30
65568;DHT22;52211;50.154;8.682;2023-05-07T02:14:46;19.00;53.40
65568;DHT22;52211;50.154;8.682;2023-05-07T02:17:13;19.00;53.40
65568;DHT22;52211;50.154;8.682;2023-05-07T02:19:42;19.00;53.50
65568;DHT22;52211;50.154;8.682;2023-05-07T02:22:16;19.00;53.50
65568;DHT22;52211;50.154;8.682;2023-05-07T02:24:48;19.00;53.60
65568;DHT22;52211;50.154;8.682;2023-05-07T02:27:19;18.90;53.80
65568;DHT22;52211;50.154;8.682;2023-05-07T02:29:49;18.90;53.80
65568;DHT22;52211;50.154;8.682;2023-05-07T02:32:16;18.90;53.70
65568;DHT22;52211;50.154;8.682;2023-05-07T02:34:45;18.90;53.80
65568;DHT22;52211;50.154;8.682;2023-05-07T02:37:12;18.80;53.80
65568;DHT22;52211;50.154;8.682;2023-05-07T02:39:41;18.90;53.80
65568;DHT22;52211;50.154;8.682;2023-05-07T02:42:08;18.80;54.00
65568;DHT22;52211;50.154;8.682;2023-05-07T02:44:38;18.80;53.90
65568;DHT22;52211;50.154;8.682;2023-05-07T02:47:07;18.80;54.00
65568;DHT22;52211;50.154;8.682;2023-05-07T02:49:38;18.80;54.00
65568;DHT22;52211;50.154;8.682;2023-05-07T02:52:10;18.80;54.10
65568;DHT22;52211;50.154;8.682;2023-05-07T02:54:37;18.80;54.10
65568;DHT22;52211;50.154;8.682;2023-05-07T02:57:04;18.80;54.20
65568;DHT22;52211;50.154;8.682;2023-05-07T02:59:34;18.80;54.20
65568;DHT22;52211;50.154;8.682;2023-05-07T03:02:05;18.80;54.20
65568;DHT22;52211;50.154;8.682;2023-05-07T03:04:32;18.80;54.40
65568;DHT22;52211;50.154;8.682;2023-05-07T03:06:59;18.80;54.30
65568;DHT22;52211;50.154;8.682;2023-05-07T03:09:26;18.80;54.30
65568;DHT22;52211;50.154;8.682;2023-05-07T03:11:58;18.80;54.40
65568;DHT22;52211;50.154;8.682;2023-05-07T03:14:28;18.70;54.50
65568;DHT22;52211;50.154;8.682;2023-05-07T03:16:59;18.80;54.50
65568;DHT22;52211;50.154;8.682;2023-05-07T03:19:26;18.80;54.60
65568;DHT22;52211;50.154;8.682;2023-05-07T03:21:59;18.70;54.50
65568;DHT22;52211;50.154;8.682;2023-05-07T03:24:26;18.70;54.50
65568;DHT22;52211;50.154;8.682;2023-05-07T03:26:53;18.70;54.60
65568;DHT22;52211;50.154;8.682;2023-05-07T03:29:23;18.70;54.70
65568;DHT22;52211;50.154;8.682;2023-05-07T03:31:52;18.70;55.00
65568;DHT22;52211;50.154;8.682;2023-05-07T03:34:20;18.60;54.70
65568;DHT22;52211;50.154;8.682;2023-05-07T03:36:49;18.60;54.80
65568;DHT22;52211;50.154;8.682;2023-05-07T03:39:17;18.60;54.80
65568;DHT22;52211;50.154;8.682;2023-05-07T03:41:44;18.60;54.90
65568;DHT22;52211;50.154;8.682;2023-05-07T03:44:13;18.60;54.90
65568;DHT22;52211;50.154;8.682;2023-05-07T03:46:40;18.60;54.90
65568;DHT22;52211;50.154;8.682;2023-05-07T03:49:09;18.60;55.00
65568;DHT22;52211;50.154;8.682;2023-05-07T03:51:36;18.60;55.00
65568;DHT22;52211;50.154;8.682;2023-05-07T03:54:07;18.60;55.00
65568;DHT22;52211;50.154;8.682;2023-05-07T03:56:36;18.60;55.10
65568;DHT22;52211;50.154;8.682;2023-05-07T03:59:03;18.60;55.10
65568;DHT22;52211;50.154;8.682;2023-05-07T04:01:36;18.50;55.10
65568;DHT22;52211;50.154;8.682;2023-05-07T04:04:09;18.50;55.30
65568;DHT22;52211;50.154;8.682;2023-05-07T04:06:36;18.50;55.40
65568;DHT22;52211;50.154;8.682;2023-05-07T04:09:03;18.50;55.30
65568;DHT22;52211;50.154;8.682;2023-05-07T04:11:30;18.50;55.30
65568;DHT22;52211;50.154;8.682;2023-05-07T04:13:57;18.50;55.40
65568;DHT22;52211;50.154;8.682;2023-05-07T04:16:27;18.50;55.40
65568;DHT22;52211;50.154;8.682;2023-05-07T04:18:54;18.50;55.60
65568;DHT22;52211;50.154;8.682;2023-05-07T04:21:21;18.40;55.40
65568;DHT22;52211;50.154;8.682;2023-05-07T04:23:53;18.40;55.50
65568;DHT22;52211;50.154;8.682;2023-05-07T04:26:20;18.40;55.70
65568;DHT22;52211;50.154;8.682;2023-05-07T04:28:50;18.40;55.60
65568;DHT22;52211;50.154;8.682;2023-05-07T04:31:17;18.30;55.60
65568;DHT22;52211;50.154;8.682;2023-05-07T04:33:50;18.30;55.70
65568;DHT22;52211;50.154;8.682;2023-05-07T04:36:18;18.30;55.70
65568;DHT22;52211;50.154;8.682;2023-05-07T04:38:57;18.30;55.80
65568;DHT22;52211;50.154;8.682;2023-05-07T04:41:30;18.30;55.90
65568;DHT22;52211;50.154;8.682;2023-05-07T04:44:00;18.30;55.90
65568;DHT22;52211;50.154;8.682;2023-05-07T04:46:32;18.30;55.90
65568;DHT22;52211;50.154;8.682;2023-05-07T04:49:02;18.40;56.30
65568;DHT22;52211;50.154;8.682;2023-05-07T04:51:32;18.40;56.20
65568;DHT22;52211;50.154;8.682;2023-05-07T04:53:59;18.40;56.40
65568;DHT22;52211;50.154;8.682;2023-05-07T04:56:29;18.40;56.30
65568;DHT22;52211;50.154;8.682;2023-05-07T04:58:58;18.40;56.30
65568;DHT22;52211;50.154;8.682;2023-05-07T05:01:28;18.40;56.30
65568;DHT22;52211;50.154;8.682;2023-05-07T05:03:57;18.40;56.30
65568;DHT22;52211;50.154;8.682;2023-05-07T05:06:29;18.40;56.40
65568;DHT22;52211;50.154;8.682;2023-05-07T05:09:02;18.40;56.40
65568;DHT22;52211;50.154;8.682;2023-05-07T05:11:32;18.40;56.60
65568;DHT22;52211;50.154;8.682;2023-05-07T05:14:04;18.40;56.50
65568;DHT22;52211;50.154;8.682;2023-05-07T05:16:31;18.50;56.60
65568;DHT22;52211;50.154;8.682;2023-05-07T05:19:05;18.50;56.70
65568;DHT22;52211;50.154;8.682;2023-05-07T05:21:42;18.50;56.90
65568;DHT22;52211;50.154;8.682;2023-05-07T05:24:12;18.50;56.90
65568;DHT22;52211;50.154;8.682;2023-05-07T05:26:43;18.50;56.80
65568;DHT22;52211;50.154;8.682;2023-05-07T05:29:13;18.60;56.80
65568;DHT22;52211;50.154;8.682;2023-05-07T05:31:43;18.60;56.90
65568;DHT22;52211;50.154;8.682;2023-05-07T05:34:13;18.60;57.00
65568;DHT22;52211;50.154;8.682;2023-05-07T05:36:46;18.60;56.80
65568;DHT22;52211;50.154;8.682;2023-05-07T05:39:15;18.60;57.00
65568;DHT22;52211;50.154;8.682;2023-05-07T05:41:45;18.70;56.90
65568;DHT22;52211;50.154;8.682;2023-05-07T05:44:15;18.70;56.90
65568;DHT22;52211;50.154;8.682;2023-05-07T05:46:44;18.70;56.90
65568;DHT22;52211;50.154;8.682;2023-05-07T05:49:13;18.70;56.90
65568;DHT22;52211;50.154;8.682;2023-05-07T05:51:40;18.80;57.00
65568;DHT22;52211;50.154;8.682;2023-05-07T05:54:14;18.80;57.10
65568;DHT22;52211;50.154;8.682;2023-05-07T05:56:44;18.80;57.20
65568;DHT22;52211;50.154;8.682;2023-05-07T05:59:17;18.80;57.70
65568;DHT22;52211;50.154;8.682;2023-05-07T06:01:46;18.90;57.20
65568;DHT22;52211;50.154;8.682;2023-05-07T06:04:18;18.90;57.00
65568;DHT22;52211;50.154;8.682;2023-05-07T06:06:50;19.00;57.20
65568;DHT22;52211;50.154;8.682;2023-05-07T06:09:24;19.00;57.20
65568;DHT22;52211;50.154;8.682;2023-05-07T06:11:51;19.10;57.20
65568;DHT22;52211;50.154;8.682;2023-05-07T06:14:18;19.10;57.10
65568;DHT22;52211;50.154;8.682;2023-05-07T06:16:50;19.20;57.10
65568;DHT22;52211;50.154;8.682;2023-05-07T06:19:19;19.20;57.10
65568;DHT22;52211;50.154;8.682;2023-05-07T06:21:55;19.30;57.00
65568;DHT22;52211;50.154;8.682;2023-05-07T06:24:30;19.40;57.00
65568;DHT22;52211;50.154;8.682;2023-05-07T06:27:00;19.40;57.00
65568;DHT22;52211;50.154;8.682;2023-05-07T06:29:28;19.50;56.90
65568;DHT22;52211;50.154;8.682;2023-05-07T06:32:07;19.50;56.80
65568;DHT22;52211;50.154;8.682;2023-05-07T06:34:35;19.60;57.00
65568;DHT22;52211;50.154;8.682;2023-05-07T06:37:08;19.60;56.70
65568;DHT22;52211;50.154;8.682;2023-05-07T06:39:57;19.70;56.70
65568;DHT22;52211;50.154;8.682;2023-05-07T06:42:31;19.60;56.50
65568;DHT22;52211;50.154;8.682;2023-05-07T06:45:16;19.60;56.50
65568;DHT22;52211;50.154;8.682;2023-05-07T06:47:46;19.70;56.60
65568;DHT22;52211;50.154;8.682;2023-05-07T06:50:18;19.70;56.50
65568;DHT22;52211;50.154;8.682;2023-05-07T06:52:47;19.80;56.60
65568;DHT22;52211;50.154;8.682;2023-05-07T06:55:16;19.80;57.20
65568;DHT22;52211;50.154;8.682;2023-05-07T06:57:46;19.90;56.50
65568;DHT22;52211;50.154;8.682;2023-05-07T07:00:17;19.90;56.40
65568;DHT22;52211;50.154;8.682;2023-05-07T07:02:50;19.90;56.30
65568;DHT22;52211;50.154;8.682;2023-05-07T07:05:21;19.90;56.20
65568;DHT22;52211;50.154;8.682;2023-05-07T07:07:53;20.00;56.20
65568;DHT22;52211;50.154;8.682;2023-05-07T07:10:27;20.00;56.30
65568;DHT22;52211;50.154;8.682;2023-05-07T07:12:55;20.00;56.20
65568;DHT22;52211;50.154;8.682;2023-05-07T07:15:22;20.00;56.20
65568;DHT22;52211;50.154;8.682;2023-05-07T07:17:56;20.10;56.30
65568;DHT22;52211;50.154;8.682;2023-05-07T07:20:25;20.10;56.30
65568;DHT22;52211;50.154;8.682;2023-05-07T07:22:54;20.20;56.30
65568;DHT22;52211;50.154;8.682;2023-05-07T07:25:26;20.30;56.30
65568;DHT22;52211;50.154;8.682;2023-05-07T07:27:53;20.40;56.20
65568;DHT22;52211;50.154;8.682;2023-05-07T07:30:22;20.40;56.20
65568;DHT22;52211;50.154;8.682;2023-05-07T07:32:55;20.50;56.10
65568;DHT22;52211;50.154;8.682;2023-05-07T07:35:35;20.60;56.00
65568;DHT22;52211;50.154;8.682;2023-05-07T07:38:06;20.70;55.90
65568;DHT22;52211;50.154;8.682;2023-05-07T07:40:41;20.80;55.90
65568;DHT22;52211;50.154;8.682;2023-05-07T07:43:11;20.90;55.60
65568;DHT22;52211;50.154;8.682;2023-05-07T07:45:37;21.00;55.60
65568;DHT22;52211;50.154;8.682;2023-05-07T07:48:10;21.10;55.50
65568;DHT22;52211;50.154;8.682;2023-05-07T07:50:43;21.20;55.30
65568;DHT22;52211;50.154;8.682;2023-05-07T07:53:18;21.20;55.10
65568;DHT22;52211;50.154;8.682;2023-05-07T07:55:45;21.30;55.00
65568;DHT22;52211;50.154;8.682;2023-05-07T07:58:20;21.40;54.90
65568;DHT22;52211;50.154;8.682;2023-05-07T08:00:51;21.50;54.70
65568;DHT22;52211;50.154;8.682;2023-05-07T08:03:17;21.50;54.70
65568;DHT22;52211;50.154;8.682;2023-05-07T08:05:53;21.60;54.50
65568;DHT22;52211;50.154;8.682;2023-05-07T08:08:23;21.60;54.50
65568;DHT22;52211;50.154;8.682;2023-05-07T08:10:52;21.70;54.40
65568;DHT22;52211;50.154;8.682;2023-05-07T08:13:26;21.90;54.40
65568;DHT22;52211;50.154;8.682;2023-05-07T08:15:53;22.00;54.20
65568;DHT22;52211;50.154;8.682;2023-05-07T08:18:23;22.00;54.10
65568;DHT22;52211;50.154;8.682;2023-05-07T08:20:52;22.10;53.90
65568;DHT22;52211;50.154;8.682;2023-05-07T08:23:24;22.20;53.90
65568;DHT22;52211;50.154;8.682;2023-05-07T08:25:54;22.20;53.60
65568;DHT22;52211;50.154;8.682;2023-05-07T08:28:22;22.30;53.50
65568;DHT22;52211;50.154;8.682;2023-05-07T08:30:51;22.30;53.40
65568;DHT22;52211;50.154;8.682;2023-05-07T08:33:21;22.50;53.30
65568;DHT22;52211;50.154;8.682;2023-05-07T08:35:47;22.50;53.10
65568;DHT22;52211;50.154;8.682;2023-05-07T08:38:15;22.60;53.10
65568;DHT22;52211;50.154;8.682;2023-05-07T08:40:42;22.70;52.80
65568;DHT22;52211;50.154;8.682;2023-05-07T08:43:20;22.70;52.60
65568;DHT22;52211;50.154;8.682;2023-05-07T08:45:53;22.70;52.50
65568;DHT22;52211;50.154;8.682;2023-05-07T08:48:27;22.80;52.50
65568;DHT22;52211;50.154;8.682;2023-05-07T08:51:11;22.80;52.40
65568;DHT22;52211;50.154;8.682;2023-05-07T08:53:43;22.80;52.00
65568;DHT22;52211;50.154;8.682;2023-05-07T08:56:15;22.90;52.10
65568;DHT22;52211;50.154;8.682;2023-05-07T08:58:43;22.90;52.20
65568;DHT22;52211;50.154;8.682;2023-05-07T09:01:17;23.00;52.00
65568;DHT22;52211;50.154;8.682;2023-05-07T09:03:51;23.00;51.70
65568;DHT22;52211;50.154;8.682;2023-05-07T09:06:25;23.00;51.90
65568;DHT22;52211;50.154;8.682;2023-05-07T09:08:56;23.10;51.90
65568;DHT22;52211;50.154;8.682;2023-05-07T09:11:30;23.20;52.00
65568;DHT22;52211;50.154;8.682;2023-05-07T09:14:00;23.20;51.80
65568;DHT22;52211;50.154;8.682;2023-05-07T09:16:33;23.30;51.50
65568;DHT22;52211;50.154;8.682;2023-05-07T09:19:03;23.30;51.40
65568;DHT22;52211;50.154;8.682;2023-05-07T09:21:36;23.40;52.20
65568;DHT22;52211;50.154;8.682;2023-05-07T09:24:06;23.40;51.50
65568;DHT22;52211;50.154;8.682;2023-05-07T09:26:37;23.50;51.30
65568;DHT22;52211;50.154;8.682;2023-05-07T09:29:12;23.60;51.30
65568;DHT22;52211;50.154;8.682;2023-05-07T09:31:39;23.60;51.20
65568;DHT22;52211;50.154;8.682;2023-05-07T09:34:13;23.70;51.10
65568;DHT22;52211;50.154;8.682;2023-05-07T09:36:48;23.80;51.20
65568;DHT22;52211;50.154;8.682;2023-05-07T09:39:20;23.80;50.90
65568;DHT22;52211;50.154;8.682;2023-05-07T09:41:49;23.90;50.70
65568;DHT22;52211;50.154;8.682;2023-05-07T09:44:30;24.00;50.70
65568;DHT22;52211;50.154;8.682;2023-05-07T09:47:07;24.00;50.50
65568;DHT22;52211;50.154;8.682;2023-05-07T09:49:46;24.00;50.30
65568;DHT22;52211;50.154;8.682;2023-05-07T09:52:26;24.10;50.10
65568;DHT22;52211;50.154;8.682;2023-05-07T09:55:02;24.20;50.30
65568;DHT22;52211;50.154;8.682;2023-05-07T09:57:35;24.20;50.10
65568;DHT22;52211;50.154;8.682;2023-05-07T10:00:10;24.30;50.10
65568;DHT22;52211;50.154;8.682;2023-05-07T10:02:57;24.40;50.20
65568;DHT22;52211;50.154;8.682;2023-05-07T10:05:37;24.40;50.20
65568;DHT22;52211;50.154;8.682;2023-05-07T10:08:09;24.50;50.00
65568;DHT22;52211;50.154;8.682;2023-05-07T10:10:40;24.50;50.00
65568;DHT22;52211;50.154;8.682;2023-05-07T10:13:18;24.50;49.80
65568;DHT22;52211;50.154;8.682;2023-05-07T10:15:50;24.70;49.60
65568;DHT22;52211;50.154;8.682;2023-05-07T10:18:21;24.70;49.50
65568;DHT22;52211;50.154;8.682;2023-05-07T10:20:54;24.70;49.40
65568;DHT22;52211;50.154;8.682;2023-05-07T10:24:05;24.80;49.40
65568;DHT22;52211;50.154;8.682;2023-05-07T10:26:39;24.80;49.40
65568;DHT22;52211;50.154;8.682;2023-05-07T10:29:37;24.90;49.30
65568;DHT22;52211;50.154;8.682;2023-05-07T10:32:14;24.90;49.20
65568;DHT22;52211;50.154;8.682;2023-05-07T10:35:00;25.00;49.80
65568;DHT22;52211;50.154;8.682;2023-05-07T10:37:34;25.10;48.90
65568;DHT22;52211;50.154;8.682;2023-05-07T10:40:01;25.20;49.00
65568;DHT22;52211;50.154;8.682;2023-05-07T10:42:36;25.30;49.10
65568;DHT22;52211;50.154;8.682;2023-05-07T10:45:15;25.30;49.00
65568;DHT22;52211;50.154;8.682;2023-05-07T10:51:22;25.60;48.60
65568;DHT22;52211;50.154;8.682;2023-05-07T10:56:46;25.90;48.30
65568;DHT22;52211;50.154;8.682;2023-05-07T11:02:02;26.20;48.50
65568;DHT22;52211;50.154;8.682;2023-05-07T11:04:43;26.30;48.10
65568;DHT22;52211;50.154;8.682;2023-05-07T11:07:28;26.40;48.80
65568;DHT22;52211;50.154;8.682;2023-05-07T11:10:02;26.50;47.80
65568;DHT22;52211;50.154;8.682;2023-05-07T11:15:13;26.80;47.70
65568;DHT22;52211;50.154;8.682;2023-05-07T11:17:59;26.90;47.70
65568;DHT22;52211;50.154;8.682;2023-05-07T11:20:44;27.10;47.10
65568;DHT22;52211;50.154;8.682;2023-05-07T11:26:13;27.30;46.70
65568;DHT22;52211;50.154;8.682;2023-05-07T11:28:43;27.30;46.80
65568;DHT22;52211;50.154;8.682;2023-05-07T11:31:11;27.40;46.90
65568;DHT22;52211;50.154;8.682;2023-05-07T11:33:43;27.50;46.80
65568;DHT22;52211;50.154;8.682;2023-05-07T11:36:15;27.70;47.20
65568;DHT22;52211;50.154;8.682;2023-05-07T11:38:49;27.90;47.00
65568;DHT22;52211;50.154;8.682;2023-05-07T11:41:18;28.10;47.00
65568;DHT22;52211;50.154;8.682;2023-05-07T11:43:59;28.40;46.90
65568;DHT22;52211;50.154;8.682;2023-05-07T11:46:27;28.70;46.40
65568;DHT22;52211;50.154;8.682;2023-05-07T11:48:57;29.00;46.40
65568;DHT22;52211;50.154;8.682;2023-05-07T11:51:30;29.20;46.10
65568;DHT22;52211;50.154;8.682;2023-05-07T11:54:03;29.50;45.60
65568;DHT22;52211;50.154;8.682;2023-05-07T11:56:35;29.80;45.20
65568;DHT22;52211;50.154;8.682;2023-05-07T11:59:11;30.10;45.30
65568;DHT22;52211;50.154;8.682;2023-05-07T12:01:45;30.40;44.90
65568;DHT22;52211;50.154;8.682;2023-05-07T12:04:21;30.60;44.10
65568;DHT22;52211;50.154;8.682;2023-05-07T12:06:55;30.80;43.60
65568;DHT22;52211;50.154;8.682;2023-05-07T12:09:28;30.90;43.10
65568;DHT22;52211;50.154;8.682;2023-05-07T12:11:57;31.10;43.30
65568;DHT22;52211;50.154;8.682;2023-05-07T12:14:46;31.20;43.00
65568;DHT22;52211;50.154;8.682;2023-05-07T12:17:14;31.20;41.80
65568;DHT22;52211;50.154;8.682;2023-05-07T12:19:44;31.30;42.30
65568;DHT22;52211;50.154;8.682;2023-05-07T12:22:14;31.20;42.00
65568;DHT22;52211;50.154;8.682;2023-05-07T12:24:49;31.20;41.70
65568;DHT22;52211;50.154;8.682;2023-05-07T12:27:24;31.20;41.20
65568;DHT22;52211;50.154;8.682;2023-05-07T12:29:53;31.20;41.90
65568;DHT22;52211;50.154;8.682;2023-05-07T12:32:21;31.20;41.70
65568;DHT22;52211;50.154;8.682;2023-05-07T12:34:51;31.20;41.70
65568;DHT22;52211;50.154;8.682;2023-05-07T12:37:24;31.20;41.20
65568;DHT22;52211;50.154;8.682;2023-05-07T12:40:09;31.30;41.50
65568;DHT22;52211;50.154;8.682;2023-05-07T12:42:40;31.30;40.60
65568;DHT22;52211;50.154;8.682;2023-05-07T12:45:13;31.30;41.20
65568;DHT22;52211;50.154;8.682;2023-05-07T12:47:46;31.40;41.30
65568;DHT22;52211;50.154;8.682;2023-05-07T12:50:15;31.40;41.10
65568;DHT22;52211;50.154;8.682;2023-05-07T12:52:48;31.40;41.00
65568;DHT22;52211;50.154;8.682;2023-05-07T12:55:20;31.50;40.90
65568;DHT22;52211;50.154;8.682;2023-05-07T12:57:49;31.50;40.90
65568;DHT22;52211;50.154;8.682;2023-05-07T13:00:36;31.60;40.70
65568;DHT22;52211;50.154;8.682;2023-05-07T13:03:09;31.60;39.90
65568;DHT22;52211;50.154;8.682;2023-05-07T13:05:41;31.70;40.50
65568;DHT22;52211;50.154;8.682;2023-05-07T13:08:08;31.70;40.20
65568;DHT22;52211;50.154;8.682;2023-05-07T13:10:36;31.70;40.40
65568;DHT22;52211;50.154;8.682;2023-05-07T13:13:07;31.90;40.40
65568;DHT22;52211;50.154;8.682;2023-05-07T13:15:34;31.90;39.80
65568;DHT22;52211;50.154;8.682;2023-05-07T13:18:04;32.00;40.00
65568;DHT22;52211;50.154;8.682;2023-05-07T13:20:33;32.10;39.90
65568;DHT22;52211;50.154;8.682;2023-05-07T13:23:03;32.00;39.40
65568;DHT22;52211;50.154;8.682;2023-05-07T13:25:33;31.90;39.10
65568;DHT22;52211;50.154;8.682;2023-05-07T13:28:02;31.90;39.00
65568;DHT22;52211;50.154;8.682;2023-05-07T13:30:39;31.90;39.00
65568;DHT22;52211;50.154;8.682;2023-05-07T13:33:07;31.80;38.50
65568;DHT22;52211;50.154;8.682;2023-05-07T13:35:34;31.70;38.70
65568;DHT22;52211;50.154;8.682;2023-05-07T13:38:01;31.60;38.50
65568;DHT22;52211;50.154;8.682;2023-05-07T13:40:33;31.40;38.40
65568;DHT22;52211;50.154;8.682;2023-05-07T13:43:03;31.20;38.30
65568;DHT22;52211;50.154;8.682;2023-05-07T13:45:30;31.10;38.40
65568;DHT22;52211;50.154;8.682;2023-05-07T13:47:59;31.00;38.40
65568;DHT22;52211;50.154;8.682;2023-05-07T13:50:31;30.80;38.40
65568;DHT22;52211;50.154;8.682;2023-05-07T13:53:01;30.70;38.50
65568;DHT22;52211;50.154;8.682;2023-05-07T13:55:28;30.60;38.50
65568;DHT22;52211;50.154;8.682;2023-05-07T13:58:00;30.50;38.40
65568;DHT22;52211;50.154;8.682;2023-05-07T14:00:35;30.50;38.60
65568;DHT22;52211;50.154;8.682;2023-05-07T14:03:04;30.50;38.90
65568;DHT22;52211;50.154;8.682;2023-05-07T14:05:36;30.50;38.90
65568;DHT22;52211;50.154;8.682;2023-05-07T14:08:07;30.50;38.70
65568;DHT22;52211;50.154;8.682;2023-05-07T14:10:42;30.50;38.50
65568;DHT22;52211;50.154;8.682;2023-05-07T14:13:11;30.50;38.10
65568;DHT22;52211;50.154;8.682;2023-05-07T14:15:38;30.40;38.30
65568;DHT22;52211;50.154;8.682;2023-05-07T14:18:08;30.40;38.30
65568;DHT22;52211;50.154;8.682;2023-05-07T14:20:40;30.40;38.00
65568;DHT22;52211;50.154;8.682;2023-05-07T14:23:12;30.20;37.70
65568;DHT22;52211;50.154;8.682;2023-05-07T14:25:46;30.10;37.70
65568;DHT22;52211;50.154;8.682;2023-05-07T14:28:14;30.00;37.80
65568;DHT22;52211;50.154;8.682;2023-05-07T14:30:46;29.80;37.90
65568;DHT22;52211;50.154;8.682;2023-05-07T14:33:13;29.70;38.10
65568;DHT22;52211;50.154;8.682;2023-05-07T14:35:42;29.70;38.00
65568;DHT22;52211;50.154;8.682;2023-05-07T14:38:17;29.60;37.90
65568;DHT22;52211;50.154;8.682;2023-05-07T14:40:49;29.50;38.00
65568;DHT22;52211;50.154;8.682;2023-05-07T14:43:22;29.50;38.00
65568;DHT22;52211;50.154;8.682;2023-05-07T14:45:53;29.50;38.00
65568;DHT22;52211;50.154;8.682;2023-05-07T14:48:22;29.60;38.00
65568;DHT22;52211;50.154;8.682;2023-05-07T14:50:54;29.60;37.90
65568;DHT22;52211;50.154;8.682;2023-05-07T14:53:25;29.60;37.80
65568;DHT22;52211;50.154;8.682;2023-05-07T14:55:54;29.60;37.80
65568;DHT22;52211;50.154;8.682;2023-05-07T14:58:21;29.60;37.70
65568;DHT22;52211;50.154;8.682;2023-05-07T15:00:53;29.60;37.80
65568;DHT22;52211;50.154;8.682;2023-05-07T15:03:20;29.60;37.40
65568;DHT22;52211;50.154;8.682;2023-05-07T15:05:48;29.60;37.30
65568;DHT22;52211;50.154;8.682;2023-05-07T15:08:18;29.50;37.30
65568;DHT22;52211;50.154;8.682;2023-05-07T15:10:50;29.50;37.30
65568;DHT22;52211;50.154;8.682;2023-05-07T15:13:19;29.40;37.10
65568;DHT22;52211;50.154;8.682;2023-05-07T15:15:49;29.30;37.10
65568;DHT22;52211;50.154;8.682;2023-05-07T15:18:23;29.20;37.20
65568;DHT22;52211;50.154;8.682;2023-05-07T15:20:52;29.10;37.10
65568;DHT22;52211;50.154;8.682;2023-05-07T15:23:21;29.00;37.20
65568;DHT22;52211;50.154;8.682;2023-05-07T15:25:48;28.90;37.10
65568;DHT22;52211;50.154;8.682;2023-05-07T15:28:18;28.80;37.20
65568;DHT22;52211;50.154;8.682;2023-05-07T15:30:48;28.60;37.00
65568;DHT22;52211;50.154;8.682;2023-05-07T15:33:17;28.50;37.10
65568;DHT22;52211;50.154;8.682;2023-05-07T15:35:44;28.40;37.10
65568;DHT22;52211;50.154;8.682;2023-05-07T15:38:14;28.30;37.10
65568;DHT22;52211;50.154;8.682;2023-05-07T15:40:42;28.20;37.10
65568;DHT22;52211;50.154;8.682;2023-05-07T15:43:12;28.00;37.00
65568;DHT22;52211;50.154;8.682;2023-05-07T15:45:43;28.00;37.10
65568;DHT22;52211;50.154;8.682;2023-05-07T15:48:12;27.90;37.20
65568;DHT22;52211;50.154;8.682;2023-05-07T15:50:49;27.70;37.20
65568;DHT22;52211;50.154;8.682;2023-05-07T15:53:18;27.60;37.30
65568;DHT22;52211;50.154;8.682;2023-05-07T15:55:45;27.50;37.30
65568;DHT22;52211;50.154;8.682;2023-05-07T15:58:15;27.50;37.50
65568;DHT22;52211;50.154;8.682;2023-05-07T16:00:46;27.40;37.50
65568;DHT22;52211;50.154;8.682;2023-05-07T16:03:13;27.30;37.50
65568;DHT22;52211;50.154;8.682;2023-05-07T16:05:42;27.20;37.50
65568;DHT22;52211;50.154;8.682;2023-05-07T16:08:12;27.20;37.70
65568;DHT22;52211;50.154;8.682;2023-05-07T16:10:41;27.10;37.70